Time;durP1;ratioP1;P1;durP2;ratioP2;P2;SDS_P1;SDS_P2;PMS_P1;PMS_P2;Temp;Humidity;BMP_temperature;BMP_pressure;BME280_temperature;BME280_humidity;BME280_pressure;Samples;Min_cycle;Max_cycle;Signal;HPM_P1;HPM_P2
2024/03/01 00:02:04;;;;;;;2.92;2.13;;;;;;;18.69;43.86;100260.19;5099791;27;20035;-67
2024/03/01 00:04:29;;;;;;;2.25;2.00;;;;;;;18.66;43.82;100257.88;5098665;28;20387;-68
2024/03/01 00:06:55;;;;;;;2.22;1.80;;;;;;;18.62;43.68;100253.97;5083772;28;20050;-68
2024/03/01 00:09:20;;;;;;;2.75;2.13;;;;;;;18.61;43.77;100251.50;5082666;28;20055;-68
2024/03/01 00:11:46;;;;;;;2.22;2.03;;;;;;;18.62;43.63;100250.50;5100726;27;20294;-68
2024/03/01 00:14:11;;;;;;;2.75;2.30;;;;;;;18.61;43.70;100259.44;5079928;28;20652;-68
2024/03/01 00:16:37;;;;;;;2.35;2.15;;;;;;;18.55;43.82;100244.34;5098442;28;20047;-68
2024/03/01 00:19:02;;;;;;;3.70;2.50;;;;;;;18.56;43.71;100241.53;5100211;28;20051;-68
2024/03/01 00:21:28;;;;;;;2.50;2.25;;;;;;;18.56;43.87;100243.34;5098099;27;20036;-67
2024/03/01 00:23:53;;;;;;;2.90;2.53;;;;;;;18.55;43.80;100239.09;5102576;28;20448;-68
2024/03/01 00:26:19;;;;;;;2.92;2.30;;;;;;;18.53;43.80;100238.44;5098791;28;20047;-68
2024/03/01 00:28:45;;;;;;;2.20;2.00;;;;;;;18.53;43.60;100241.09;5099810;28;20059;-68
2024/03/01 00:31:10;;;;;;;2.55;2.35;;;;;;;18.50;43.85;100237.00;5096935;28;20039;-69
2024/03/01 00:33:36;;;;;;;2.35;2.15;;;;;;;18.51;43.96;100235.19;5100450;28;20100;-67
2024/03/01 00:36:01;;;;;;;2.85;2.30;;;;;;;18.52;43.68;100229.72;5100252;28;20694;-67
2024/03/01 00:38:27;;;;;;;2.72;2.20;;;;;;;18.45;43.91;100234.09;5099782;28;20042;-67
2024/03/01 00:40:53;;;;;;;2.72;2.00;;;;;;;18.49;43.90;100239.81;5095241;28;20046;-67
2024/03/01 00:43:19;;;;;;;2.38;2.17;;;;;;;18.45;43.79;100228.81;5098637;28;20046;-67
2024/03/01 00:45:45;;;;;;;2.35;2.10;;;;;;;18.43;43.92;100236.09;5096219;28;20029;-67
2024/03/01 00:48:12;;;;;;;2.90;2.45;;;;;;;18.42;43.98;100230.00;5098461;28;20058;-67
2024/03/01 00:50:39;;;;;;;2.47;2.28;;;;;;;18.40;43.80;100221.47;5097948;28;20041;-67
2024/03/01 00:53:05;;;;;;;2.92;2.55;;;;;;;18.40;43.83;100220.66;5099263;28;20078;-67
2024/03/01 00:55:31;;;;;;;5.35;2.40;;;;;;;18.41;43.75;100230.19;5097167;28;20051;-67
2024/03/01 00:57:57;;;;;;;3.05;2.17;;;;;;;18.41;43.83;100220.47;5099960;28;20043;-67
2024/03/01 01:00:23;;;;;;;2.60;2.22;;;;;;;18.41;43.92;100227.56;5099284;28;20036;-67
2024/03/01 01:02:48;;;;;;;2.65;2.10;;;;;;;18.37;43.85;100221.84;5098660;28;20036;-67
2024/03/01 01:05:15;;;;;;;2.78;2.50;;;;;;;18.36;43.86;100225.47;5098378;28;20036;-67
2024/03/01 01:07:40;;;;;;;2.20;2.00;;;;;;;18.36;43.75;100225.47;5096748;28;20043;-67
2024/03/01 01:10:07;;;;;;;2.60;2.25;;;;;;;18.33;43.83;100211.84;5100556;28;20050;-67
2024/03/01 01:12:33;;;;;;;4.15;2.30;;;;;;;18.34;43.91;100216.13;5081304;28;20054;-67
2024/03/01 01:14:59;;;;;;;2.25;2.05;;;;;;;18.34;43.92;100216.13;5081298;28;20043;-67
2024/03/01 01:17:24;;;;;;;2.38;2.17;;;;;;;18.33;43.92;100209.22;5079073;28;20027;-66
2024/03/01 01:19:50;;;;;;;2.58;2.33;;;;;;;18.32;43.93;100200.50;5100652;28;20039;-66
2024/03/01 01:22:16;;;;;;;2.70;2.25;;;;;;;18.28;44.01;100198.41;5100540;28;20028;-67
2024/03/01 01:24:41;;;;;;;2.50;2.10;;;;;;;18.30;43.97;100201.66;5101218;28;20040;-68
2024/03/01 01:27:07;;;;;;;2.47;2.28;;;;;;;18.31;43.99;100200.66;5101549;28;20044;-68
2024/03/01 01:29:32;;;;;;;2.90;2.00;;;;;;;18.28;43.79;100195.75;5081581;28;20062;-67
2024/03/01 01:31:58;;;;;;;2.90;2.30;;;;;;;18.24;43.97;100181.31;5100713;28;20036;-67
2024/03/01 01:34:24;;;;;;;2.60;2.25;;;;;;;18.28;43.95;100190.47;5086290;28;20164;-67
2024/03/01 01:36:49;;;;;;;2.40;2.20;;;;;;;18.27;43.79;100187.03;5100314;28;20032;-67
2024/03/01 01:39:15;;;;;;;2.33;2.13;;;;;;;18.24;43.96;100182.13;5100902;28;20049;-69
2024/03/01 01:41:40;;;;;;;2.70;2.30;;;;;;;18.22;43.83;100173.59;5098672;28;20035;-69
2024/03/01 01:44:06;;;;;;;3.60;2.47;;;;;;;18.22;44.03;100168.34;5101310;27;20040;-70
2024/03/01 01:46:31;;;;;;;3.42;2.63;;;;;;;18.20;44.00;100166.88;5098911;28;20515;-70
2024/03/01 01:48:58;;;;;;;2.20;2.00;;;;;;;18.17;44.10;100168.06;5102572;28;20070;-70
2024/03/01 01:51:25;;;;;;;2.58;2.20;;;;;;;18.17;43.90;100156.72;5101917;27;20050;-70
2024/03/01 01:53:51;;;;;;;2.78;2.17;;;;;;;18.17;43.85;100151.44;5100058;27;20042;-69
2024/03/01 01:56:17;;;;;;;2.45;2.20;;;;;;;18.15;44.13;100151.63;5105830;27;20055;-70
2024/03/01 01:58:44;;;;;;;2.47;2.28;;;;;;;18.15;43.97;100153.47;5069554;28;20040;-70
2024/03/01 02:01:10;;;;;;;2.88;2.30;;;;;;;18.09;43.97;100147.09;5086516;28;20063;-70
2024/03/01 02:03:37;;;;;;;2.55;2.20;;;;;;;18.15;43.93;100154.28;5099046;27;20128;-69
2024/03/01 02:06:04;;;;;;;2.60;2.20;;;;;;;18.08;43.98;100135.72;5101380;27;20043;-70
2024/03/01 02:08:34;;;;;;;3.42;2.45;;;;;;;18.13;44.11;100140.44;5107835;27;20463;-69
2024/03/01 02:11:01;;;;;;;2.53;2.20;;;;;;;18.15;43.95;100146.38;5104939;27;20130;-70
2024/03/01 02:13:27;;;;;;;2.97;2.22;;;;;;;18.12;44.06;100139.63;5102085;27;20133;-70
2024/03/01 02:15:53;;;;;;;2.30;2.10;;;;;;;18.17;43.83;100139.09;5103686;27;20058;-70
2024/03/01 02:18:19;;;;;;;2.75;2.00;;;;;;;18.14;43.89;100125.47;5104022;27;20463;-70
2024/03/01 02:21:13;;;;;;;2.70;2.30;;;;;;;18.14;43.90;100120.22;5101589;27;20032;-69
2024/03/01 02:23:39;;;;;;;2.58;2.20;;;;;;;18.10;44.05;100119.75;5102764;27;20178;-69
2024/03/01 02:26:05;;;;;;;2.25;2.05;;;;;;;18.13;44.12;100114.09;5105818;27;20733;-69
2024/03/01 02:28:31;;;;;;;3.08;2.20;;;;;;;18.14;44.03;100107.03;5105539;27;20106;-69
2024/03/01 02:30:57;;;;;;;2.20;2.00;;;;;;;18.16;43.85;100105.03;5087660;28;20522;-69
2024/03/01 02:33:23;;;;;;;2.65;2.30;;;;;;;18.15;44.09;100090.22;5099922;28;20065;-68
2024/03/01 02:35:49;;;;;;;2.17;1.98;;;;;;;18.17;43.79;100098.75;5101187;28;20478;-70
2024/03/01 02:38:15;;;;;;;3.00;2.40;;;;;;;18.16;44.10;100097.94;5103928;28;20445;-67
2024/03/01 02:40:41;;;;;;;2.35;2.15;;;;;;;18.17;43.95;100096.94;5101002;28;22402;-67
2024/03/01 02:43:06;;;;;;;2.28;2.08;;;;;;;18.14;44.12;100085.94;5065496;28;20051;-66
2024/03/01 02:45:33;;;;;;;2.70;2.40;;;;;;;18.17;44.00;100085.56;5086122;28;20061;-66
2024/03/01 02:47:58;;;;;;;2.30;2.08;;;;;;;18.09;44.09;100076.75;5102107;28;20555;-67
2024/03/01 02:50:24;;;;;;;2.42;2.22;;;;;;;18.14;44.13;100076.22;5099620;27;20043;-67
2024/03/01 02:52:50;;;;;;;2.55;2.25;;;;;;;18.11;44.05;100069.47;5101000;28;20046;-67
2024/03/01 02:55:20;;;;;;;2.83;2.33;;;;;;;18.12;43.91;100075.56;5082976;28;20613;-67
2024/03/01 02:57:53;;;;;;;2.63;2.20;;;;;;;18.11;43.90;100080.03;5099840;28;20043;-66
2024/03/01 03:00:20;;;;;;;2.60;2.00;;;;;;;18.15;43.84;100088.41;5100783;28;20032;-68
2024/03/01 03:02:46;;;;;;;2.70;2.40;;;;;;;18.16;43.86;100086.56;5098662;28;20036;-68
2024/03/01 03:05:12;;;;;;;5.10;2.35;;;;;;;18.14;44.27;100078.03;5101685;27;20027;-67
2024/03/01 03:07:38;;;;;;;6.00;2.35;;;;;;;18.10;44.09;100075.75;5100532;28;20547;-67
2024/03/01 03:10:04;;;;;;;4.28;2.30;;;;;;;18.13;44.11;100071.94;5083428;28;20456;-68
2024/03/01 03:12:30;;;;;;;3.70;2.10;;;;;;;18.12;44.03;100073.75;5101810;28;20622;-67
2024/03/01 03:14:56;;;;;;;2.67;2.30;;;;;;;18.14;43.93;100072.78;5101751;27;20031;-68
2024/03/01 03:17:22;;;;;;;2.33;2.10;;;;;;;18.12;44.05;100062.41;5080829;28;20490;-68
2024/03/01 03:19:49;;;;;;;2.28;2.08;;;;;;;18.09;43.85;100068.03;5102638;28;20079;-68
2024/03/01 03:22:15;;;;;;;2.40;2.20;;;;;;;18.12;43.89;100072.94;5100819;28;20028;-67
2024/03/01 03:24:41;;;;;;;3.47;2.15;;;;;;;18.10;43.98;100072.31;5102554;28;20065;-68
2024/03/01 03:27:07;;;;;;;2.30;2.00;;;;;;;18.10;43.91;100073.13;5083286;28;20653;-67
2024/03/01 03:29:34;;;;;;;2.30;2.10;;;;;;;18.07;44.10;100065.59;5096903;28;20047;-67
2024/03/01 03:32:00;;;;;;;2.65;2.20;;;;;;;18.11;44.05;100077.38;5099037;28;20032;-68
2024/03/01 03:34:25;;;;;;;2.80;2.15;;;;;;;18.10;43.90;100064.41;5098014;28;20043;-67
2024/03/01 03:36:51;;;;;;;2.58;2.38;;;;;;;18.08;44.15;100067.22;5102173;28;20528;-67
2024/03/01 03:39:16;;;;;;;2.78;1.95;;;;;;;18.04;43.78;100059.88;5097069;28;20736;-67
2024/03/01 03:41:43;;;;;;;2.63;2.30;;;;;;;18.01;44.18;100063.72;5083044;28;20036;-68
2024/03/01 03:44:08;;;;;;;2.28;2.08;;;;;;;18.06;44.04;100063.16;5100317;28;20097;-68
2024/03/01 03:46:35;;;;;;;2.53;2.15;;;;;;;18.05;43.93;100066.78;5078934;28;20444;-68
2024/03/01 03:49:01;;;;;;;3.10;2.65;;;;;;;18.00;43.87;100064.72;5101179;28;20028;-68
2024/03/01 03:51:29;;;;;;;2.47;2.00;;;;;;;18.05;44.00;100066.78;5100342;28;20371;-68
2024/03/01 03:53:58;;;;;;;2.78;2.28;;;;;;;18.04;44.00;100068.59;5101778;28;20031;-68
2024/03/01 03:56:23;;;;;;;2.55;2.25;;;;;;;18.00;44.12;100066.53;5099374;27;20644;-67
2024/03/01 03:58:50;;;;;;;2.67;2.03;;;;;;;18.01;43.83;100061.09;5099574;28;20042;-70
2024/03/01 04:01:16;;;;;;;2.40;2.20;;;;;;;18.02;44.09;100070.63;5096513;28;20415;-68
2024/03/01 04:03:44;;;;;;;2.45;2.20;;;;;;;17.96;44.15;100058.19;5096970;28;20047;-67
2024/03/01 04:06:10;;;;;;;2.22;2.03;;;;;;;17.98;44.04;100064.09;5100362;28;20051;-68
2024/03/01 04:08:39;;;;;;;2.33;1.90;;;;;;;17.93;44.05;100055.91;5101069;28;20043;-67
2024/03/01 04:11:06;;;;;;;2.53;2.33;;;;;;;17.97;44.07;100059.81;5097146;28;20147;-67
2024/03/01 04:13:40;;;;;;;2.70;2.40;;;;;;;17.96;44.00;100065.28;5098559;28;20047;-67
2024/03/01 04:16:06;;;;;;;2.50;2.10;;;;;;;17.95;44.11;100061.00;5097805;28;20031;-68
2024/03/01 04:18:33;;;;;;;2.53;2.33;;;;;;;17.95;44.00;100063.63;5077911;28;20032;-68
2024/03/01 04:21:00;;;;;;;2.85;2.40;;;;;;;18.00;43.87;100061.28;5102185;28;20042;-68
2024/03/01 04:23:26;;;;;;;2.63;2.17;;;;;;;17.98;44.01;100060.66;5083138;28;20047;-68
2024/03/01 04:25:53;;;;;;;2.40;2.20;;;;;;;17.99;44.06;100057.00;5097199;28;20558;-67
2024/03/01 04:28:23;;;;;;;3.13;2.53;;;;;;;17.98;44.00;100058.00;5097748;28;20038;-68
2024/03/01 04:30:48;;;;;;;2.80;2.10;;;;;;;17.95;43.98;100040.72;5102078;28;20032;-68
2024/03/01 04:33:14;;;;;;;2.63;2.25;;;;;;;17.96;43.89;100058.19;5097638;28;20035;-67
2024/03/01 04:35:41;;;;;;;2.85;2.30;;;;;;;17.90;43.98;100053.66;5096656;28;20048;-68
2024/03/01 04:38:07;;;;;;;2.92;2.22;;;;;;;17.90;44.21;100055.47;5101696;28;20035;-68
2024/03/01 04:40:33;;;;;;;2.60;2.20;;;;;;;17.92;44.05;100050.81;5098329;28;20028;-68
2024/03/01 04:42:59;;;;;;;3.08;2.30;;;;;;;17.92;44.02;100045.56;5104054;28;20128;-67
2024/03/01 04:45:27;;;;;;;3.00;2.20;;;;;;;17.91;44.12;100051.84;5100016;28;20364;-68
2024/03/01 04:47:53;;;;;;;2.40;2.20;;;;;;;17.92;44.10;100056.91;5102063;28;20050;-68
2024/03/01 04:50:19;;;;;;;3.95;2.67;;;;;;;17.91;44.06;100060.56;5101055;28;20040;-67
2024/03/01 04:52:45;;;;;;;3.67;2.40;;;;;;;17.91;44.33;100060.56;5100062;28;20444;-68
2024/03/01 04:55:11;;;;;;;2.83;2.40;;;;;;;17.90;44.36;100055.47;5098792;28;20035;-67
2024/03/01 04:57:36;;;;;;;3.25;2.72;;;;;;;17.91;44.22;100060.56;5083860;28;21874;-68
2024/03/01 05:00:03;;;;;;;2.88;2.58;;;;;;;17.92;44.25;100056.91;5095462;28;20039;-68
2024/03/01 05:02:29;;;;;;;2.72;2.45;;;;;;;17.88;44.38;100060.94;5099584;28;20096;-68
2024/03/01 05:04:57;;;;;;;2.80;2.30;;;;;;;17.88;44.23;100058.28;5104833;28;20449;-68
2024/03/01 05:07:23;;;;;;;2.47;2.25;;;;;;;17.88;44.21;100053.03;5101230;28;20482;-68
2024/03/01 05:09:48;;;;;;;2.67;2.30;;;;;;;17.88;44.20;100055.66;5101618;28;20072;-68
2024/03/01 05:12:14;;;;;;;2.80;2.50;;;;;;;17.90;43.89;100063.38;5102501;28;20055;-66
2024/03/01 05:14:40;;;;;;;2.63;2.30;;;;;;;17.89;44.15;100049.38;5102658;28;20047;-68
2024/03/01 05:17:11;;;;;;;2.97;2.22;;;;;;;17.89;44.07;100053.84;5100019;28;20464;-67
2024/03/01 05:19:39;;;;;;;2.75;2.42;;;;;;;17.86;44.15;100054.22;5101000;28;20637;-68
2024/03/01 05:22:12;;;;;;;3.00;2.40;;;;;;;17.86;44.10;100054.22;5104995;27;20072;-68
2024/03/01 05:24:39;;;;;;;3.00;2.70;;;;;;;17.86;44.17;100055.03;5087076;28;20051;-67
2024/03/01 05:27:04;;;;;;;2.75;2.50;;;;;;;17.89;44.02;100059.91;5100915;28;20048;-68
2024/03/01 05:29:30;;;;;;;2.58;2.25;;;;;;;17.91;44.05;100057.91;5105423;27;20075;-67
2024/03/01 05:31:56;;;;;;;3.10;2.50;;;;;;;17.90;44.04;100055.47;5099255;27;20084;-67
2024/03/01 05:34:21;;;;;;;3.13;2.67;;;;;;;17.95;44.01;100061.00;5100212;28;20043;-68
2024/03/01 05:36:47;;;;;;;2.20;2.00;;;;;;;17.95;44.00;100061.00;5083384;28;20035;-67
2024/03/01 05:39:18;;;;;;;3.13;2.65;;;;;;;17.95;44.23;100061.81;5101592;27;20410;-66
2024/03/01 05:41:45;;;;;;;2.75;2.53;;;;;;;18.20;45.04;100056.22;5082530;27;20047;-69
2024/03/01 05:44:12;;;;;;;3.05;2.30;;;;;;;18.39;44.05;100055.59;5078527;27;20039;-68
2024/03/01 05:46:38;;;;;;;3.08;2.72;;;;;;;18.46;43.84;100051.19;5101816;28;20043;-71
2024/03/01 05:49:04;;;;;;;2.50;2.30;;;;;;;18.63;43.62;100052.56;5104942;27;20031;-71
2024/03/01 05:51:29;;;;;;;2.97;2.47;;;;;;;18.77;43.53;100056.16;5100102;27;20448;-72
2024/03/01 05:53:57;;;;;;;2.78;2.50;;;;;;;19.05;43.25;100050.88;5109138;27;20756;-70
2024/03/01 05:56:24;;;;;;;3.13;2.70;;;;;;;19.26;42.92;100058.72;5099573;27;20046;-71
2024/03/01 05:58:50;;;;;;;2.83;2.33;;;;;;;19.42;42.70;100054.13;5039575;28;20050;-70
2024/03/01 06:01:17;;;;;;;2.50;2.30;;;;;;;19.57;42.63;100065.41;5080406;27;20020;-72
2024/03/01 06:03:43;;;;;;;2.83;2.45;;;;;;;19.65;42.56;100052.03;5046397;28;20055;-71
2024/03/01 06:06:09;;;;;;;3.35;2.47;;;;;;;19.78;41.90;100061.84;5099555;28;20516;-69
2024/03/01 06:08:35;;;;;;;2.88;2.28;;;;;;;19.82;42.15;100055.16;5061477;28;20265;-69
2024/03/01 06:11:01;;;;;;;2.78;2.28;;;;;;;19.94;42.00;100060.69;5103392;28;20448;-69
2024/03/01 06:13:26;;;;;;;2.50;2.20;;;;;;;20.00;41.59;100070.44;5056792;28;20043;-71
2024/03/01 06:15:52;;;;;;;3.08;2.53;;;;;;;20.08;41.77;100076.34;5085624;28;20050;-68
2024/03/01 06:18:17;;;;;;;2.40;2.20;;;;;;;20.13;41.47;100075.78;5057700;27;20077;-69
2024/03/01 06:20:43;;;;;;;2.80;2.40;;;;;;;20.20;41.50;100074.78;5101816;27;20050;-70
2024/03/01 06:23:08;;;;;;;2.75;2.10;;;;;;;20.28;41.67;100083.53;5062208;27;20094;-69
2024/03/01 06:25:34;;;;;;;2.80;2.30;;;;;;;20.33;41.71;100081.13;5106508;27;20127;-70
2024/03/01 06:27:59;;;;;;;2.65;2.40;;;;;;;20.35;41.33;100074.59;5058222;28;20067;-71
2024/03/01 06:30:25;;;;;;;2.42;2.22;;;;;;;20.43;41.05;100076.25;5100168;28;20843;-71
2024/03/01 06:32:50;;;;;;;2.42;2.20;;;;;;;20.39;41.00;100067.88;5059335;28;20040;-71
2024/03/01 06:35:16;;;;;;;2.42;2.13;;;;;;;20.50;41.20;100077.91;5102454;28;20084;-71
2024/03/01 06:37:41;;;;;;;3.05;2.20;;;;;;;20.50;41.32;100072.63;5057016;28;20040;-69
2024/03/01 06:40:09;;;;;;;2.60;2.28;;;;;;;20.59;40.98;100080.34;5081956;28;20036;-70
2024/03/01 06:42:35;;;;;;;2.65;2.20;;;;;;;20.57;40.91;100074.44;5055702;28;20046;-70
2024/03/01 06:45:01;;;;;;;2.90;2.25;;;;;;;20.63;40.87;100078.91;5099839;28;20039;-69
2024/03/01 06:47:30;;;;;;;2.58;2.38;;;;;;;20.61;41.20;100067.72;5058082;27;20640;-71
2024/03/01 06:49:56;;;;;;;3.38;2.42;;;;;;;20.70;41.17;100090.34;5083158;28;20096;-68
2024/03/01 06:52:21;;;;;;;2.22;2.03;;;;;;;20.75;40.86;100095.81;5090363;27;20146;-72
2024/03/01 06:54:47;;;;;;;2.78;2.17;;;;;;;20.81;40.65;100101.09;5083513;28;20059;-68
2024/03/01 06:57:12;;;;;;;3.03;2.50;;;;;;;20.68;40.73;100090.53;5057185;27;20074;-68
2024/03/01 06:59:38;;;;;;;2.58;2.38;;;;;;;20.57;41.01;100079.75;5101661;27;20047;-68
2024/03/01 07:02:05;;;;;;;2.90;2.50;;;;;;;20.63;40.78;100103.53;5047458;27;20475;-69
2024/03/01 07:04:30;;;;;;;2.65;2.28;;;;;;;20.64;41.15;100110.47;5096446;28;20036;-68
2024/03/01 07:06:56;;;;;;;2.70;2.30;;;;;;;20.61;40.85;100118.81;5040949;28;20085;-68
2024/03/01 07:09:21;;;;;;;2.30;2.10;;;;;;;20.62;40.93;100119.63;5075442;28;20032;-67
2024/03/01 07:11:47;;;;;;;2.55;2.30;;;;;;;20.62;41.18;100127.56;5050487;28;20032;-67
2024/03/01 07:14:12;;;;;;;2.30;2.10;;;;;;;20.58;41.14;100127.16;5069841;28;20051;-67
2024/03/01 07:16:38;;;;;;;4.00;2.42;;;;;;;20.60;40.94;100132.25;5051081;27;20039;-67
2024/03/01 07:19:04;;;;;;;3.05;2.60;;;;;;;20.58;41.35;100135.09;5067875;28;20087;-67
2024/03/01 07:21:30;;;;;;;2.88;2.58;;;;;;;20.57;41.04;100138.75;4996194;28;20036;-68
2024/03/01 07:23:55;;;;;;;2.67;2.38;;;;;;;20.54;41.26;100127.75;5102506;27;20190;-67
2024/03/01 07:26:21;;;;;;;3.03;2.22;;;;;;;20.59;41.15;100146.47;5029298;28;20471;-67
2024/03/01 07:28:47;;;;;;;3.42;2.47;;;;;;;20.57;40.85;100159.91;5098373;27;20055;-67
2024/03/01 07:31:12;;;;;;;3.00;2.70;;;;;;;20.52;41.14;100147.28;5043819;27;21119;-68
2024/03/01 07:33:38;;;;;;;2.90;2.50;;;;;;;20.55;41.02;100156.66;5102194;27;20357;-68
2024/03/01 07:36:04;;;;;;;2.85;2.50;;;;;;;20.46;41.41;100177.16;5055446;27;20043;-68
2024/03/01 07:38:30;;;;;;;2.63;2.30;;;;;;;20.52;40.87;100186.16;5089974;27;20044;-68
2024/03/01 07:40:56;;;;;;;2.60;2.20;;;;;;;20.51;41.16;100184.53;5073460;27;20483;-68
2024/03/01 07:43:22;;;;;;;2.67;2.03;;;;;;;20.50;41.24;100185.53;5070108;28;20455;-67
2024/03/01 07:45:48;;;;;;;2.15;1.80;;;;;;;20.53;40.87;100206.28;5076054;28;20047;-68
2024/03/01 07:48:13;;;;;;;2.40;2.20;;;;;;;20.53;41.10;100206.28;5053499;27;20127;-67
2024/03/01 07:50:39;;;;;;;2.90;2.47;;;;;;;20.54;41.24;100207.13;5084569;28;20035;-67
2024/03/01 07:53:04;;;;;;;2.97;2.30;;;;;;;20.51;41.04;100218.91;5044729;27;20159;-68
2024/03/01 07:55:30;;;;;;;2.47;2.10;;;;;;;20.47;41.06;100218.50;5067670;28;20648;-68
2024/03/01 07:57:56;;;;;;;2.05;1.95;;;;;;;20.46;41.34;100219.47;5099875;27;20035;-68
2024/03/01 08:00:21;;;;;;;2.25;2.05;;;;;;;20.49;41.16;100231.53;5044386;28;20653;-67
2024/03/01 08:02:59;;;;;;;2.70;2.13;;;;;;;20.48;41.06;100236.00;5095873;27;20337;-68
2024/03/01 08:05:24;;;;;;;3.38;2.60;;;;;;;20.47;41.06;100239.66;5045458;28;21214;-68
2024/03/01 08:07:50;;;;;;;2.53;1.98;;;;;;;20.49;41.28;100255.31;5064770;28;20093;-67
2024/03/01 08:10:16;;;;;;;2.05;1.85;;;;;;;20.45;41.04;100254.88;5026183;28;20044;-69
2024/03/01 08:12:41;;;;;;;2.30;2.00;;;;;;;20.48;41.03;100273.03;5100262;28;20039;-67
2024/03/01 08:15:10;;;;;;;2.83;2.33;;;;;;;20.48;41.12;100275.66;5043947;28;20653;-68
2024/03/01 08:17:35;;;;;;;1.98;1.83;;;;;;;20.47;41.04;100274.03;5081645;28;20051;-67
2024/03/01 08:20:10;;;;;;;2.50;1.90;;;;;;;20.48;40.82;100286.25;5045199;28;20054;-67
2024/03/01 08:22:35;;;;;;;2.22;1.90;;;;;;;20.50;40.69;100280.75;5093753;28;20038;-68
2024/03/01 08:25:06;;;;;;;2.95;2.10;;;;;;;20.50;40.84;100289.50;5037676;28;20051;-69
2024/03/01 08:27:32;;;;;;;2.05;1.85;;;;;;;20.50;40.65;100292.16;5093005;28;20055;-69
2024/03/01 08:29:57;;;;;;;1.75;1.65;;;;;;;20.49;40.78;100292.34;5044801;28;20379;-69
2024/03/01 08:32:26;;;;;;;1.92;1.58;;;;;;;20.51;40.78;100296.44;5062325;28;20067;-67
2024/03/01 08:34:55;;;;;;;1.98;1.77;;;;;;;20.47;40.37;100289.09;5048181;28;20045;-67
2024/03/01 08:37:25;;;;;;;2.55;1.83;;;;;;;20.50;40.57;100296.63;5093322;28;20100;-69
2024/03/01 08:39:53;;;;;;;;;;;;;;;20.50;40.70;100299.28;5047143;28;20594;-67
2024/03/01 08:42:19;;;;;;;2.38;1.80;;;;;;;20.48;40.63;100298.66;5064179;28;19919;-67
2024/03/01 08:44:53;;;;;;;1.73;1.52;;;;;;;20.50;40.55;100309.84;5045357;28;20554;-68
2024/03/01 08:47:41;;;;;;;1.90;1.50;;;;;;;20.49;40.54;100305.56;5095263;28;20063;-68
2024/03/01 08:50:20;;;;;;;1.73;1.60;;;;;;;20.57;40.36;100310.69;5032480;28;20047;-67
2024/03/01 08:52:47;;;;;;;1.60;1.50;;;;;;;20.59;40.36;100319.25;5099190;28;20047;-68
2024/03/01 08:55:18;;;;;;;1.75;1.25;;;;;;;20.64;40.45;100321.28;5051868;28;20046;-69
2024/03/01 08:57:45;;;;;;;1.60;1.50;;;;;;;20.63;40.28;100317.00;5099676;28;20070;-69
2024/03/01 09:00:38;;;;;;;1.23;1.13;;;;;;;20.66;40.41;100316.63;5049636;28;20069;-68
2024/03/01 09:03:05;;;;;;;2.33;1.55;;;;;;;20.68;40.18;100306.66;5076390;28;20050;-68
2024/03/01 09:05:34;;;;;;;1.80;1.40;;;;;;;20.65;40.24;100302.59;5099250;28;20043;-69
2024/03/01 09:08:00;;;;;;;1.48;1.30;;;;;;;20.70;40.14;100308.09;5043240;28;20038;-69
2024/03/01 09:10:34;;;;;;;1.42;1.17;;;;;;;20.69;40.29;100301.19;5082743;28;20036;-69
2024/03/01 09:13:03;;;;;;;1.48;1.20;;;;;;;20.71;40.26;100307.09;5060941;28;20448;-70
2024/03/01 09:15:44;;;;;;;1.48;1.20;;;;;;;20.72;40.01;100307.91;5094908;28;20031;-70
2024/03/01 09:18:31;;;;;;;2.53;1.20;;;;;;;20.74;40.18;100319.09;5035678;28;21395;-68
2024/03/01 09:20:57;;;;;;;2.10;1.35;;;;;;;20.74;40.03;100321.75;5091648;28;20031;-68
2024/03/01 09:23:23;;;;;;;1.30;1.20;;;;;;;20.73;40.22;100320.94;5046816;28;20305;-68
2024/03/01 09:25:48;;;;;;;1.52;1.40;;;;;;;20.73;40.05;100314.81;5096047;28;20039;-69
2024/03/01 09:28:21;;;;;;;1.20;1.10;;;;;;;20.72;40.11;100313.19;5056752;28;20673;-68
2024/03/01 09:30:51;;;;;;;1.63;1.00;;;;;;;20.73;39.99;100312.19;5096731;28;20371;-67
2024/03/01 09:33:18;;;;;;;1.73;1.40;;;;;;;20.72;39.97;100313.19;5043174;28;20740;-70
2024/03/01 09:35:45;;;;;;;1.10;1.00;;;;;;;20.75;40.00;100318.09;5098792;28;20483;-67
2024/03/01 09:38:12;;;;;;;1.67;1.08;;;;;;;20.69;40.14;100316.25;5050599;28;20130;-67
2024/03/01 09:40:48;;;;;;;1.65;1.30;;;;;;;20.68;40.05;100326.00;5094202;28;20086;-68
2024/03/01 09:43:39;;;;;;;0.73;0.73;;;;;;;20.66;39.95;100329.88;5051641;28;21729;-67
2024/03/01 09:46:43;;;;;;;2.60;1.38;;;;;;;20.70;40.24;100337.22;5095142;28;20698;-65
2024/03/01 09:49:34;;;;;;;1.35;0.98;;;;;;;20.69;40.01;100338.22;5050057;28;20137;-69
2024/03/01 09:52:19;;;;;;;1.60;1.00;;;;;;;20.62;40.25;100320.66;5100176;28;20042;-68
2024/03/01 09:55:13;;;;;;;1.63;1.00;;;;;;;20.65;40.23;100337.00;5051940;28;20047;-68
2024/03/01 09:57:59;;;;;;;2.28;1.05;;;;;;;20.69;39.92;100345.34;5096085;28;20418;-72
2024/03/01 10:00:31;;;;;;;1.30;1.20;;;;;;;20.65;40.09;100352.03;5086184;28;20078;-72
2024/03/01 10:03:16;;;;;;;1.33;0.95;;;;;;;20.65;40.24;100355.50;5069744;28;20036;-72
2024/03/01 10:06:01;;;;;;;1.65;0.85;;;;;;;20.66;40.16;100365.06;5099928;27;20301;-72
2024/03/01 10:08:33;;;;;;;1.55;0.95;;;;;;;20.66;40.15;100369.56;5058138;27;20114;-72
2024/03/01 10:11:19;;;;;;;2.05;1.40;;;;;;;20.63;40.17;100365.44;5094623;27;20118;-69
2024/03/01 10:14:07;;;;;;;0.60;0.50;;;;;;;20.64;40.08;100360.97;5101551;27;20035;-70
2024/03/01 10:16:54;;;;;;;1.27;1.00;;;;;;;20.65;40.27;100352.03;5081998;27;20095;-70
2024/03/01 10:19:25;;;;;;;1.23;1.02;;;;;;;20.64;40.07;100364.44;5099061;27;20051;-68
2024/03/01 10:22:05;;;;;;;1.55;0.90;;;;;;;20.65;39.84;100365.28;5057494;27;20625;-69
2024/03/01 10:24:43;;;;;;;2.05;1.13;;;;;;;20.62;39.91;100360.34;5099978;27;20031;-66
2024/03/01 10:27:24;;;;;;;1.05;0.85;;;;;;;20.58;39.89;100359.13;5035842;28;20444;-68
2024/03/01 10:30:15;;;;;;;1.85;0.95;;;;;;;20.60;39.49;100368.47;5100079;27;20043;-68
2024/03/01 10:33:03;;;;;;;0.75;0.75;;;;;;;20.59;39.59;100363.38;5038512;28;20054;-68
2024/03/01 10:35:44;;;;;;;1.00;0.90;;;;;;;20.59;39.40;100361.56;5099920;27;20070;-68
2024/03/01 10:38:24;;;;;;;1.75;0.70;;;;;;;20.59;39.47;100368.69;5059928;27;20042;-68
2024/03/01 10:41:17;;;;;;;0.73;0.73;;;;;;;20.58;39.31;100357.28;5100260;27;20463;-68
2024/03/01 10:44:13;;;;;;;0.80;0.60;;;;;;;20.56;39.11;100351.38;5042900;28;20055;-67
2024/03/01 10:46:47;;;;;;;1.45;0.90;;;;;;;20.58;39.33;100361.75;5061998;27;20054;-67
2024/03/01 10:49:31;;;;;;;1.40;0.98;;;;;;;20.58;39.45;100362.56;5102299;27;20066;-68
2024/03/01 10:52:05;;;;;;;1.42;1.05;;;;;;;20.55;39.24;100362.97;5037480;28;20035;-68
2024/03/01 10:54:35;;;;;;;1.52;1.05;;;;;;;20.58;39.14;100353.81;5100174;28;20084;-68
2024/03/01 10:57:02;;;;;;;1.42;1.17;;;;;;;20.55;39.21;100352.38;5053194;28;20731;-68
2024/03/01 10:59:34;;;;;;;1.73;0.90;;;;;;;20.51;39.51;100341.38;5082549;28;20032;-68
2024/03/01 11:02:09;;;;;;;2.03;0.88;;;;;;;20.52;39.51;100340.38;5052551;28;20689;-68
2024/03/01 11:04:57;;;;;;;1.73;1.08;;;;;;;20.57;39.30;100349.53;5098348;28;20114;-68
2024/03/01 11:07:31;;;;;;;0.90;0.85;;;;;;;20.58;39.00;100335.31;5057535;28;20031;-68
2024/03/01 11:10:09;;;;;;;1.20;0.52;;;;;;;20.52;39.34;100336.91;5097247;28;20031;-68
2024/03/01 11:12:50;;;;;;;0.95;0.85;;;;;;;20.55;39.21;100333.88;5050210;28;20043;-68
2024/03/01 11:15:19;;;;;;;1.65;0.80;;;;;;;20.48;39.42;100322.47;5079422;27;20796;-67
2024/03/01 11:17:48;;;;;;;0.90;0.90;;;;;;;20.45;39.24;100305.13;5082758;28;20100;-68
2024/03/01 11:20:25;;;;;;;0.88;0.80;;;;;;;20.47;39.55;100310.25;5057960;28;20044;-67
2024/03/01 11:23:01;;;;;;;1.05;0.85;;;;;;;20.47;39.28;100320.81;5095366;28;20538;-68
2024/03/01 11:25:39;;;;;;;0.47;0.47;;;;;;;20.43;39.39;100317.72;5057484;28;20182;-67
2024/03/01 11:28:08;;;;;;;1.77;1.00;;;;;;;20.45;39.28;100325.47;5097612;28;20047;-68
2024/03/01 11:30:44;;;;;;;0.90;0.90;;;;;;;20.42;39.61;100316.09;5055689;28;20452;-69
2024/03/01 11:33:11;;;;;;;1.38;1.08;;;;;;;20.40;39.33;100318.09;5096516;28;20058;-67